Danbury, Iowa
Current Conditions -  °F | °C
As of 8:35 AM on Thursday 27 Nov 2014 (Local Time) from KDNS Reporting Station
Clear Clear  
Wind Chill: -8°   Ceiling: Unl
Heat Index:   Visibility: 10mi
Dew Point: -9°   Wind: 6mph
Humidity: 56%   Direction: 40°NE
Pressure: 30.48"   Gusts: NA
Location:  42.23°N, 95.72°W
Report Text: KDNS 271435Z AUTO 04005KT 10SM CLR M16/M23 A3048 RMK AO2
Loading
Personal Weather Stations






























Interactive Weather Map New forecast layout! Learn more

10-Day Weather Forecast

Advertisements
Track Severe Weather on mobile